createdAt,value
2017-09-09T00:01:00.101Z,1018.26
2017-09-09T00:02:00.888Z,1018.26
2017-09-09T00:03:01.526Z,1018.28
2017-09-09T00:04:02.160Z,1018.30
2017-09-09T00:05:02.800Z,1018.32
2017-09-09T00:06:03.435Z,1018.26
2017-09-09T00:07:04.074Z,1018.29
2017-09-09T00:08:04.709Z,1018.18
2017-09-09T00:09:05.349Z,1018.21
2017-09-09T00:10:06.235Z,1018.26
2017-09-09T00:11:06.872Z,1018.08
2017-09-09T00:12:07.508Z,1018.14
2017-09-09T00:13:08.143Z,1018.16
2017-09-09T00:14:08.779Z,1018.12
2017-09-09T00:15:09.415Z,1018.17
2017-09-09T00:16:10.053Z,1018.17
2017-09-09T00:17:10.691Z,1018.17
2017-09-09T00:18:11.528Z,1018.24
2017-09-09T00:19:12.168Z,1018.18
2017-09-09T00:20:12.806Z,1018.16
2017-09-09T00:21:13.441Z,1018.10
2017-09-09T00:22:14.076Z,1018.09
2017-09-09T00:23:14.721Z,1018.10
2017-09-09T00:24:15.349Z,1018.06
2017-09-09T00:25:15.987Z,1018.04
2017-09-09T00:26:16.825Z,1018.01
2017-09-09T00:27:17.458Z,1018.13
2017-09-09T00:28:18.095Z,1018.05
2017-09-09T00:29:18.731Z,1018.07
2017-09-09T00:30:19.367Z,1018.04
2017-09-09T00:31:20.003Z,1018.04
2017-09-09T00:32:20.640Z,1017.97
2017-09-09T00:33:21.280Z,1018.01
2017-09-09T00:34:21.918Z,1018.01
2017-09-09T00:35:22.755Z,1017.93
2017-09-09T00:36:23.344Z,1017.96
2017-09-09T00:37:24.029Z,1017.89
2017-09-09T00:38:24.668Z,1017.89
2017-09-09T00:39:25.306Z,1017.90
2017-09-09T00:40:25.948Z,1017.86
2017-09-09T00:41:26.580Z,1017.84
2017-09-09T00:42:27.218Z,1017.83
2017-09-09T00:43:28.155Z,1017.83
2017-09-09T00:44:28.739Z,1017.78
2017-09-09T00:45:29.377Z,1017.74
2017-09-09T00:46:30.015Z,1017.73
2017-09-09T00:47:30.651Z,1017.69
2017-09-09T00:48:31.287Z,1017.77
2017-09-09T00:49:31.926Z,1017.66
2017-09-09T00:50:32.563Z,1017.78
2017-09-09T00:51:33.397Z,1017.72
2017-09-09T00:52:34.037Z,1017.72
2017-09-09T00:53:34.678Z,1017.78
2017-09-09T00:54:35.309Z,1017.78
2017-09-09T00:55:35.946Z,1017.74
2017-09-09T00:56:36.583Z,1017.75
2017-09-09T00:57:37.219Z,1017.70
2017-09-09T00:58:37.858Z,1017.77
2017-09-09T00:59:38.645Z,1017.74
2017-09-09T01:00:39.284Z,1017.68
2017-09-09T01:01:39.920Z,1017.71
2017-09-09T01:02:40.556Z,1017.61
2017-09-09T01:03:41.193Z,1017.63
2017-09-09T01:04:41.831Z,1017.60
2017-09-09T01:05:42.471Z,1017.60
2017-09-09T01:06:43.106Z,1017.55
2017-09-09T01:07:43.742Z,1017.55
2017-09-09T01:08:44.578Z,1017.60
2017-09-09T01:09:45.219Z,1017.65
2017-09-09T01:10:45.853Z,1017.58
2017-09-09T01:11:46.490Z,1017.58
2017-09-09T01:12:47.126Z,1017.59
2017-09-09T01:13:47.762Z,1017.61
2017-09-09T01:14:48.400Z,1017.64
2017-09-09T01:15:49.037Z,1017.61
2017-09-09T01:16:49.975Z,1017.60
2017-09-09T01:17:50.609Z,1017.62
2017-09-09T01:18:51.248Z,1017.62
2017-09-09T01:19:51.885Z,1017.62
2017-09-09T01:20:52.521Z,1017.65
2017-09-09T01:21:53.157Z,1017.57
2017-09-09T01:22:53.794Z,1017.62
2017-09-09T01:23:54.435Z,1017.49
2017-09-09T01:24:55.221Z,1017.53
2017-09-09T01:25:55.856Z,1017.46
2017-09-09T01:26:56.496Z,1017.52
2017-09-09T01:27:57.129Z,1017.46
2017-09-09T01:28:57.765Z,1017.41
2017-09-09T01:29:58.403Z,1017.38
2017-09-09T01:30:59.046Z,1017.40
2017-09-09T01:31:59.731Z,1017.35
2017-09-09T01:33:00.567Z,1017.38
2017-09-09T01:34:01.205Z,1017.38
2017-09-09T01:35:01.845Z,1017.40
2017-09-09T01:36:02.478Z,1017.32
2017-09-09T01:37:03.118Z,1017.35
2017-09-09T01:38:03.752Z,1017.28
2017-09-09T01:39:04.390Z,1017.30
2017-09-09T01:40:05.027Z,1017.30
2017-09-09T01:41:05.813Z,1017.31
2017-09-09T01:42:06.455Z,1017.26
2017-09-09T01:43:07.085Z,1017.32
2017-09-09T01:44:07.720Z,1017.30
2017-09-09T01:45:08.359Z,1017.28
2017-09-09T01:46:09.002Z,1017.29
2017-09-09T01:47:09.635Z,1017.26
2017-09-09T01:48:10.270Z,1017.22
2017-09-09T01:49:10.908Z,1017.22
2017-09-09T01:50:11.745Z,1017.25
2017-09-09T01:51:12.380Z,1017.28
2017-09-09T01:52:13.018Z,1017.28
2017-09-09T01:53:13.652Z,1017.29
2017-09-09T01:54:14.291Z,1017.23
2017-09-09T01:55:14.924Z,1017.32
2017-09-09T01:56:15.567Z,1017.34
2017-09-09T01:57:16.253Z,1017.29
2017-09-09T01:58:17.042Z,1017.34
2017-09-09T01:59:17.677Z,1017.30
2017-09-09T02:00:18.314Z,1017.22
2017-09-09T02:01:18.951Z,1017.22
2017-09-09T02:02:19.585Z,1017.25
2017-09-09T02:03:20.224Z,1017.24
2017-09-09T02:04:20.858Z,1017.25
2017-09-09T02:05:21.498Z,1017.22
2017-09-09T02:06:22.331Z,1017.17
2017-09-09T02:07:22.968Z,1017.20
2017-09-09T02:08:23.604Z,1017.26
2017-09-09T02:09:24.244Z,1017.24
2017-09-09T02:10:24.882Z,1017.26
2017-09-09T02:11:25.517Z,1017.17
2017-09-09T02:12:26.154Z,1017.19
2017-09-09T02:13:26.793Z,1017.19
2017-09-09T02:14:27.580Z,1017.17
2017-09-09T02:15:28.217Z,1017.17
2017-09-09T02:16:28.855Z,1017.14
2017-09-09T02:17:29.441Z,1017.12
2017-09-09T02:18:30.076Z,1017.05
2017-09-09T02:19:30.715Z,1017.07
2017-09-09T02:20:31.358Z,1017.15
2017-09-09T02:21:31.986Z,1017.07
2017-09-09T02:22:32.625Z,1017.17
2017-09-09T02:23:33.511Z,1017.08
2017-09-09T02:24:34.149Z,1017.15
2017-09-09T02:25:34.786Z,1017.14
2017-09-09T02:26:35.420Z,1017.14
2017-09-09T02:27:36.058Z,1017.12
2017-09-09T02:28:36.698Z,1017.12
2017-09-09T02:29:37.331Z,1017.19
2017-09-09T02:30:37.968Z,1017.13
2017-09-09T02:31:38.807Z,1017.14
2017-09-09T02:32:39.446Z,1017.14
2017-09-09T02:33:40.080Z,1017.14
2017-09-09T02:34:40.717Z,1017.14
2017-09-09T02:35:41.352Z,1017.14
2017-09-09T02:36:41.991Z,1017.14
2017-09-09T02:37:42.629Z,1017.09
2017-09-09T02:38:43.265Z,1017.13
2017-09-09T02:39:44.054Z,1017.15
2017-09-09T02:40:44.692Z,1017.15
2017-09-09T02:41:45.330Z,1017.12
2017-09-09T02:42:45.966Z,1017.15
2017-09-09T02:43:46.601Z,1017.14
2017-09-09T02:44:47.242Z,1017.18
2017-09-09T02:45:47.875Z,1017.14
2017-09-09T02:46:48.513Z,1017.08
2017-09-09T02:47:49.349Z,1017.10
2017-09-09T02:48:49.985Z,1017.06
2017-09-09T02:49:50.621Z,1017.06
2017-09-09T02:50:51.256Z,1017.06
2017-09-09T02:51:51.893Z,1017.03
2017-09-09T02:52:52.529Z,1017.05
2017-09-09T02:53:53.167Z,1016.99
2017-09-09T02:54:53.802Z,1016.98
2017-09-09T02:55:54.590Z,1017.00
2017-09-09T02:56:55.230Z,1016.96
2017-09-09T02:57:55.865Z,1016.89
2017-09-09T02:58:56.501Z,1016.94
2017-09-09T02:59:57.143Z,1016.91
2017-09-09T03:00:57.771Z,1016.96
2017-09-09T03:01:58.409Z,1016.94
2017-09-09T03:02:59.046Z,1016.93
2017-09-09T03:03:59.682Z,1016.91
2017-09-09T03:05:00.517Z,1016.90
2017-09-09T03:06:01.157Z,1016.92
2017-09-09T03:07:01.796Z,1016.88
2017-09-09T03:08:02.430Z,1016.98
2017-09-09T03:09:03.071Z,1016.95
2017-09-09T03:10:03.705Z,1016.92
2017-09-09T03:11:04.342Z,1017.04
2017-09-09T03:12:04.983Z,1016.96
2017-09-09T03:13:05.770Z,1017.00
2017-09-09T03:14:06.405Z,1016.98
2017-09-09T03:15:07.046Z,1017.03
2017-09-09T03:16:07.679Z,1017.00
2017-09-09T03:17:08.315Z,1017.20
2017-09-09T03:18:08.952Z,1017.09
2017-09-09T03:19:09.589Z,1017.13
2017-09-09T03:20:10.225Z,1017.13
2017-09-09T03:21:11.063Z,1017.10
2017-09-09T03:22:11.749Z,1017.07
2017-09-09T03:23:12.387Z,1017.18
2017-09-09T03:24:13.054Z,1017.20
2017-09-09T03:25:13.663Z,1017.11
2017-09-09T03:26:14.296Z,1017.18
2017-09-09T03:27:14.937Z,1017.11
2017-09-09T03:28:15.576Z,1017.18
2017-09-09T03:29:16.356Z,1017.23
2017-09-09T03:30:16.995Z,1017.16
2017-09-09T03:31:17.629Z,1017.19
2017-09-09T03:32:18.267Z,1017.13
2017-09-09T03:33:18.903Z,1017.18
2017-09-09T03:34:19.539Z,1017.27
2017-09-09T03:35:20.177Z,1017.15
2017-09-09T03:36:20.815Z,1017.18
2017-09-09T03:37:21.452Z,1017.15
2017-09-09T03:38:22.389Z,1017.20
2017-09-09T03:39:23.023Z,1017.18
2017-09-09T03:40:23.658Z,1017.20
2017-09-09T03:41:24.295Z,1017.15
2017-09-09T03:42:24.933Z,1017.14
2017-09-09T03:43:25.569Z,1017.19
2017-09-09T03:44:26.207Z,1017.12
2017-09-09T03:45:26.847Z,1017.14
2017-09-09T03:46:27.683Z,1017.12
2017-09-09T03:47:28.318Z,1017.22
2017-09-09T03:48:28.957Z,1017.12
2017-09-09T03:49:29.592Z,1017.15
2017-09-09T03:50:30.228Z,1017.12
2017-09-09T03:51:30.864Z,1017.17
2017-09-09T03:52:31.501Z,1017.21
2017-09-09T03:53:32.139Z,1017.16
2017-09-09T03:54:32.974Z,1017.14
2017-09-09T03:55:33.615Z,1017.14
2017-09-09T03:56:34.248Z,1017.16
2017-09-09T03:57:34.884Z,1017.16
2017-09-09T03:58:35.523Z,1017.14
2017-09-09T03:59:36.158Z,1017.15
2017-09-09T04:00:36.794Z,1017.16
2017-09-09T04:01:37.434Z,1017.15
2017-09-09T04:02:38.271Z,1017.14
2017-09-09T04:03:38.907Z,1017.15
2017-09-09T04:04:39.542Z,1017.07
2017-09-09T04:05:40.178Z,1017.07
2017-09-09T04:06:40.816Z,1017.06
2017-09-09T04:07:41.453Z,1017.03
2017-09-09T04:08:42.091Z,1017.03
2017-09-09T04:09:42.729Z,1017.02
2017-09-09T04:10:43.516Z,1017.07
2017-09-09T04:11:44.203Z,1017.05
2017-09-09T04:12:44.839Z,1017.06
2017-09-09T04:13:45.475Z,1017.06
2017-09-09T04:14:46.111Z,1016.99
2017-09-09T04:15:46.750Z,1017.09
2017-09-09T04:16:47.387Z,1016.99
2017-09-09T04:17:48.024Z,1017.05
2017-09-09T04:18:48.658Z,1017.01
2017-09-09T04:19:49.597Z,1017.10
2017-09-09T04:20:50.231Z,1017.14
2017-09-09T04:21:50.870Z,1017.22
2017-09-09T04:22:51.505Z,1017.13
2017-09-09T04:23:52.141Z,1017.10
2017-09-09T04:24:52.776Z,1017.08
2017-09-09T04:25:53.413Z,1017.05
2017-09-09T04:26:53.999Z,1017.14
2017-09-09T04:27:54.833Z,1017.20
2017-09-09T04:28:55.469Z,1017.19
2017-09-09T04:29:56.105Z,1017.15
2017-09-09T04:30:56.758Z,1017.20
2017-09-09T04:31:57.438Z,1017.15
2017-09-09T04:32:58.070Z,1017.08
2017-09-09T04:33:58.706Z,1017.08
2017-09-09T04:34:59.342Z,1017.07
2017-09-09T04:36:00.128Z,1017.21
2017-09-09T04:37:00.767Z,1017.07
2017-09-09T04:38:01.400Z,1017.09
2017-09-09T04:39:02.039Z,1017.07
2017-09-09T04:40:02.674Z,1017.14
2017-09-09T04:41:03.311Z,1017.16
2017-09-09T04:42:03.945Z,1017.10
2017-09-09T04:43:04.582Z,1017.16
2017-09-09T04:44:05.519Z,1017.15
2017-09-09T04:45:06.155Z,1017.18
2017-09-09T04:46:06.789Z,1017.25
2017-09-09T04:47:07.428Z,1017.21
2017-09-09T04:48:08.064Z,1017.17
2017-09-09T04:49:08.700Z,1017.13
2017-09-09T04:50:09.338Z,1017.17
2017-09-09T04:51:09.977Z,1017.17
2017-09-09T04:52:10.611Z,1017.11
2017-09-09T04:53:11.396Z,1017.12
2017-09-09T04:54:12.033Z,1017.13
2017-09-09T04:55:12.669Z,1017.10
2017-09-09T04:56:13.319Z,1017.10
2017-09-09T04:57:13.946Z,1017.12
2017-09-09T04:58:14.585Z,1016.98
2017-09-09T04:59:15.217Z,1017.05
2017-09-09T05:00:15.853Z,1017.00
2017-09-09T05:01:16.692Z,1017.00
2017-09-09T05:02:17.329Z,1017.03
2017-09-09T05:03:17.966Z,1016.97
2017-09-09T05:04:18.650Z,1017.01
2017-09-09T05:05:19.289Z,1016.99
2017-09-09T05:06:19.924Z,1017.00
2017-09-09T05:07:20.560Z,1016.98
2017-09-09T05:08:21.196Z,1017.01
2017-09-09T05:09:22.033Z,1016.96
2017-09-09T05:10:22.669Z,1016.94
2017-09-09T05:11:23.306Z,1017.04
2017-09-09T05:12:23.942Z,1017.06
2017-09-09T05:13:24.579Z,1017.02
2017-09-09T05:14:25.214Z,1017.05
2017-09-09T05:15:25.853Z,1017.04
2017-09-09T05:16:26.489Z,1017.05
2017-09-09T05:17:27.327Z,1017.08
2017-09-09T05:18:27.996Z,1017.04
2017-09-09T05:19:28.598Z,1017.01
2017-09-09T05:20:29.234Z,1017.05
2017-09-09T05:21:29.869Z,1017.04
2017-09-09T05:22:30.509Z,1017.09
2017-09-09T05:23:31.145Z,1017.02
2017-09-09T05:24:31.781Z,1016.99
2017-09-09T05:25:32.615Z,1017.06
2017-09-09T05:26:33.200Z,1017.14
2017-09-09T05:27:33.838Z,1017.07
2017-09-09T05:28:34.478Z,1017.06
2017-09-09T05:29:35.112Z,1017.07
2017-09-09T05:30:35.750Z,1017.06
2017-09-09T05:31:36.386Z,1017.04
2017-09-09T05:32:37.021Z,1017.07
2017-09-09T05:33:37.657Z,1017.12
2017-09-09T05:34:38.546Z,1017.04
2017-09-09T05:35:39.180Z,1017.02
2017-09-09T05:36:39.819Z,1017.05
2017-09-09T05:37:40.457Z,1017.04
2017-09-09T05:38:41.092Z,1017.14
2017-09-09T05:39:41.779Z,1017.03
2017-09-09T05:40:42.466Z,1017.05
2017-09-09T05:41:43.102Z,1017.09
2017-09-09T05:42:43.890Z,1017.06
2017-09-09T05:43:44.528Z,1017.09
2017-09-09T05:44:45.164Z,1017.06
2017-09-09T05:45:45.800Z,1017.09
2017-09-09T05:46:46.444Z,1017.03
2017-09-09T05:47:47.075Z,1017.06
2017-09-09T05:48:47.711Z,1017.12
2017-09-09T05:49:48.348Z,1017.13
2017-09-09T05:50:49.233Z,1017.11
2017-09-09T05:51:49.870Z,1017.10
2017-09-09T05:52:50.509Z,1017.15
2017-09-09T05:53:51.143Z,1017.17
2017-09-09T05:54:51.777Z,1017.17
2017-09-09T05:55:52.415Z,1017.17
2017-09-09T05:56:53.053Z,1017.20
2017-09-09T05:57:53.686Z,1017.22
2017-09-09T05:58:54.474Z,1017.25
2017-09-09T05:59:55.109Z,1017.18
2017-09-09T06:00:55.747Z,1017.30
2017-09-09T06:01:56.383Z,1017.34
2017-09-09T06:02:57.018Z,1017.29
2017-09-09T06:03:57.655Z,1017.26
2017-09-09T06:04:58.290Z,1017.29
2017-09-09T06:05:58.925Z,1017.28
2017-09-09T06:06:59.564Z,1017.23
2017-09-09T06:08:00.398Z,1017.29
2017-09-09T06:09:01.036Z,1017.30
2017-09-09T06:10:01.672Z,1017.30
2017-09-09T06:11:02.309Z,1017.31
2017-09-09T06:12:02.945Z,1017.38
2017-09-09T06:13:03.581Z,1017.49
2017-09-09T06:14:04.218Z,1017.45
2017-09-09T06:15:04.852Z,1017.42
2017-09-09T06:16:05.841Z,1017.41
2017-09-09T06:17:06.476Z,1017.42
2017-09-09T06:18:07.116Z,1017.40
2017-09-09T06:19:07.753Z,1017.37
2017-09-09T06:20:08.387Z,1017.37
2017-09-09T06:21:09.024Z,1017.32
2017-09-09T06:22:09.666Z,1017.51
2017-09-09T06:23:10.295Z,1017.42
2017-09-09T06:24:11.083Z,1017.44
2017-09-09T06:25:11.721Z,1017.49
2017-09-09T06:26:12.356Z,1017.42
2017-09-09T06:27:12.994Z,1017.55
2017-09-09T06:28:13.629Z,1017.52
2017-09-09T06:29:14.264Z,1017.56
2017-09-09T06:30:14.900Z,1017.41
2017-09-09T06:31:15.538Z,1017.51
2017-09-09T06:32:16.376Z,1017.55
2017-09-09T06:33:17.017Z,1017.48
2017-09-09T06:34:17.648Z,1017.44
2017-09-09T06:35:18.287Z,1017.46
2017-09-09T06:36:18.920Z,1017.45
2017-09-09T06:37:19.555Z,1017.37
2017-09-09T06:38:20.193Z,1017.51
2017-09-09T06:39:20.834Z,1017.45
2017-09-09T06:40:21.668Z,1017.43
2017-09-09T06:41:22.303Z,1017.47
2017-09-09T06:42:22.941Z,1017.52
2017-09-09T06:43:23.574Z,1017.57
2017-09-09T06:44:24.211Z,1017.51
2017-09-09T06:45:24.846Z,1017.64
2017-09-09T06:46:25.485Z,1017.62
2017-09-09T06:47:26.119Z,1017.66
2017-09-09T06:48:26.754Z,1017.69
2017-09-09T06:49:27.594Z,1017.74
2017-09-09T06:50:28.231Z,1017.68
2017-09-09T06:51:28.865Z,1017.73
2017-09-09T06:52:29.506Z,1017.73
2017-09-09T06:53:30.144Z,1017.70
2017-09-09T06:54:30.779Z,1017.73
2017-09-09T06:55:31.418Z,1017.75
2017-09-09T06:56:32.053Z,1017.73
2017-09-09T06:57:32.892Z,1017.73
2017-09-09T06:58:33.527Z,1017.82
2017-09-09T06:59:34.166Z,1017.73
2017-09-09T07:00:34.803Z,1017.75
2017-09-09T07:01:35.438Z,1017.75
2017-09-09T07:02:36.074Z,1017.78
2017-09-09T07:03:36.708Z,1017.84
2017-09-09T07:04:37.345Z,1017.80
2017-09-09T07:05:38.080Z,1017.78
2017-09-09T07:06:38.717Z,1017.77
2017-09-09T07:07:39.405Z,1017.68
2017-09-09T07:08:40.040Z,1017.71
2017-09-09T07:09:40.674Z,1017.73
2017-09-09T07:10:41.313Z,1017.78
2017-09-09T07:11:41.951Z,1017.73
2017-09-09T07:12:42.588Z,1017.74
2017-09-09T07:13:43.424Z,1017.72
2017-09-09T07:14:44.057Z,1017.83
2017-09-09T07:15:44.694Z,1017.80
2017-09-09T07:16:45.331Z,1017.82
2017-09-09T07:17:45.970Z,1017.83
2017-09-09T07:18:46.602Z,1017.86
2017-09-09T07:19:47.238Z,1017.85
2017-09-09T07:20:47.873Z,1017.78
2017-09-09T07:21:48.510Z,1017.87
2017-09-09T07:22:49.349Z,1017.83
2017-09-09T07:23:49.985Z,1017.88
2017-09-09T07:24:50.621Z,1017.82
2017-09-09T07:25:51.259Z,1017.91
2017-09-09T07:26:51.897Z,1017.79
2017-09-09T07:27:52.531Z,1017.83
2017-09-09T07:28:53.171Z,1017.82
2017-09-09T07:29:53.806Z,1017.88
2017-09-09T07:30:54.744Z,1017.83
2017-09-09T07:31:55.381Z,1017.87
2017-09-09T07:32:56.018Z,1017.91
2017-09-09T07:33:56.654Z,1017.88
2017-09-09T07:34:57.291Z,1017.84
2017-09-09T07:35:57.925Z,1017.88
2017-09-09T07:36:58.613Z,1017.84
2017-09-09T07:37:59.251Z,1017.95
2017-09-09T07:39:00.135Z,1017.84
2017-09-09T07:40:00.769Z,1017.78
2017-09-09T07:41:01.408Z,1017.79
2017-09-09T07:42:02.105Z,1017.91
2017-09-09T07:43:02.784Z,1018.08
2017-09-09T07:44:03.421Z,1017.94
2017-09-09T07:45:04.057Z,1017.88
2017-09-09T07:46:04.691Z,1017.85
2017-09-09T07:47:05.479Z,1017.90
2017-09-09T07:48:06.115Z,1017.82
2017-09-09T07:49:06.751Z,1017.80
2017-09-09T07:50:07.387Z,1017.75
2017-09-09T07:51:08.023Z,1017.84
2017-09-09T07:52:08.658Z,1017.87
2017-09-09T07:53:09.301Z,1017.92
2017-09-09T07:54:09.931Z,1017.84
2017-09-09T07:55:10.766Z,1017.81
2017-09-09T07:56:11.406Z,1017.83
2017-09-09T07:57:12.039Z,1017.84
2017-09-09T07:58:12.679Z,1017.88
2017-09-09T07:59:13.316Z,1017.83
2017-09-09T08:00:13.952Z,1017.80
2017-09-09T08:01:14.588Z,1017.77
2017-09-09T08:02:15.223Z,1017.85
2017-09-09T08:03:15.861Z,1017.80
2017-09-09T08:04:16.646Z,1017.79
2017-09-09T08:05:17.282Z,1017.75
2017-09-09T08:06:17.920Z,1017.72
2017-09-09T08:07:18.554Z,1017.85
2017-09-09T08:08:19.190Z,1017.85
2017-09-09T08:09:19.825Z,1017.85
2017-09-09T08:10:20.466Z,1017.88
2017-09-09T08:11:21.098Z,1017.95
2017-09-09T08:12:21.936Z,1017.88
2017-09-09T08:13:22.574Z,1017.93
2017-09-09T08:14:23.208Z,1017.87
2017-09-09T08:15:23.848Z,1017.81
2017-09-09T08:16:24.481Z,1017.83
2017-09-09T08:17:25.118Z,1017.83
2017-09-09T08:18:25.757Z,1017.83
2017-09-09T08:19:26.391Z,1017.74
2017-09-09T08:20:27.375Z,1017.84
2017-09-09T08:21:28.012Z,1017.84
2017-09-09T08:22:28.649Z,1017.90
2017-09-09T08:23:29.286Z,1017.87
2017-09-09T08:24:29.924Z,1017.93
2017-09-09T08:25:30.562Z,1017.85
2017-09-09T08:26:31.200Z,1017.90
2017-09-09T08:27:31.837Z,1017.93
2017-09-09T08:28:32.672Z,1017.93
2017-09-09T08:29:33.310Z,1017.92
2017-09-09T08:30:33.949Z,1017.91
2017-09-09T08:31:34.584Z,1018.00
2017-09-09T08:32:35.223Z,1017.98
2017-09-09T08:33:35.860Z,1017.86
2017-09-09T08:34:36.497Z,1017.90
2017-09-09T08:35:37.132Z,1017.93
2017-09-09T08:36:37.775Z,1017.91
2017-09-09T08:37:38.705Z,1017.94
2017-09-09T08:38:39.341Z,1018.03
2017-09-09T08:39:39.983Z,1017.91
2017-09-09T08:40:40.612Z,1017.98
2017-09-09T08:41:41.252Z,1018.06
2017-09-09T08:42:41.891Z,1018.04
2017-09-09T08:43:42.528Z,1018.03
2017-09-09T08:44:43.163Z,1018.04
2017-09-09T08:45:43.999Z,1018.04
2017-09-09T08:46:44.633Z,1018.03
2017-09-09T08:47:45.268Z,1018.10
2017-09-09T08:48:45.905Z,1018.01
2017-09-09T08:49:46.547Z,1018.03
2017-09-09T08:50:47.176Z,1017.98
2017-09-09T08:51:47.811Z,1017.90
2017-09-09T08:52:48.451Z,1018.03
2017-09-09T08:53:49.286Z,1018.01
2017-09-09T08:54:49.924Z,1018.04
2017-09-09T08:55:50.561Z,1018.03
2017-09-09T08:56:51.196Z,1018.03
2017-09-09T08:57:51.833Z,1018.04
2017-09-09T08:58:52.470Z,1017.95
2017-09-09T08:59:53.110Z,1018.03
2017-09-09T09:00:53.749Z,1018.03
2017-09-09T09:01:54.537Z,1017.98
2017-09-09T09:02:55.177Z,1017.96
2017-09-09T09:03:55.811Z,1018.01
2017-09-09T09:04:56.448Z,1018.10
2017-09-09T09:05:57.087Z,1018.09
2017-09-09T09:06:57.723Z,1018.15
2017-09-09T09:07:58.365Z,1018.11
2017-09-09T09:08:59.002Z,1018.22
2017-09-09T09:09:59.888Z,1018.16
2017-09-09T09:11:00.527Z,1018.27
2017-09-09T09:12:01.167Z,1018.28
2017-09-09T09:13:01.806Z,1018.37
2017-09-09T09:14:02.444Z,1018.42
2017-09-09T09:15:03.077Z,1018.42
2017-09-09T09:16:03.719Z,1018.47
2017-09-09T09:17:04.359Z,1018.43
2017-09-09T09:18:04.994Z,1018.46
2017-09-09T09:19:05.836Z,1018.46
2017-09-09T09:20:06.472Z,1018.45
2017-09-09T09:21:07.114Z,1018.42
2017-09-09T09:22:07.746Z,1018.48
2017-09-09T09:23:08.383Z,1018.50
2017-09-09T09:24:09.023Z,1018.46
2017-09-09T09:25:09.658Z,1018.48
2017-09-09T09:26:10.294Z,1018.41
2017-09-09T09:27:11.132Z,1018.43
2017-09-09T09:28:11.768Z,1018.45
2017-09-09T09:29:12.407Z,1018.43
2017-09-09T09:30:13.046Z,1018.40
2017-09-09T09:31:13.680Z,1018.40
2017-09-09T09:32:14.320Z,1018.41
2017-09-09T09:33:14.959Z,1018.36
2017-09-09T09:34:15.595Z,1018.37
2017-09-09T09:35:16.435Z,1018.39
2017-09-09T09:36:17.069Z,1018.37
2017-09-09T09:37:17.708Z,1018.40
2017-09-09T09:38:18.345Z,1018.42
2017-09-09T09:39:18.982Z,1018.45
2017-09-09T09:40:19.622Z,1018.47
2017-09-09T09:41:20.260Z,1018.45
2017-09-09T09:42:20.897Z,1018.50
2017-09-09T09:43:21.684Z,1018.45
2017-09-09T09:44:22.325Z,1018.46
2017-09-09T09:45:22.961Z,1018.52
2017-09-09T09:46:23.601Z,1018.47
2017-09-09T09:47:24.237Z,1018.43
2017-09-09T09:48:24.874Z,1018.50
2017-09-09T09:49:25.516Z,1018.56
2017-09-09T09:50:26.150Z,1018.58
2017-09-09T09:51:26.790Z,1018.53
2017-09-09T09:52:27.631Z,1018.56
2017-09-09T09:53:28.268Z,1018.60
2017-09-09T09:54:28.905Z,1018.49
2017-09-09T09:55:29.552Z,1018.53
2017-09-09T09:56:30.177Z,1018.54
2017-09-09T09:57:30.818Z,1018.52
2017-09-09T09:58:31.455Z,1018.50
2017-09-09T09:59:32.093Z,1018.56
2017-09-09T10:00:32.883Z,1018.59
2017-09-09T10:01:33.524Z,1018.54
2017-09-09T10:02:34.157Z,1018.57
2017-09-09T10:03:34.794Z,1018.56
2017-09-09T10:04:35.430Z,1018.60
2017-09-09T10:05:36.069Z,1018.60
2017-09-09T10:06:36.705Z,1018.57
2017-09-09T10:07:37.341Z,1018.53
2017-09-09T10:08:38.179Z,1018.49
2017-09-09T10:09:38.815Z,1018.59
2017-09-09T10:10:39.456Z,1018.53
2017-09-09T10:11:40.092Z,1018.49
2017-09-09T10:12:40.731Z,1018.49
2017-09-09T10:13:41.371Z,1018.46
2017-09-09T10:14:42.008Z,1018.53
2017-09-09T10:15:42.644Z,1018.53
2017-09-09T10:16:43.482Z,1018.51
2017-09-09T10:17:44.121Z,1018.52
2017-09-09T10:18:44.759Z,1018.43
2017-09-09T10:19:45.396Z,1018.49
2017-09-09T10:20:46.084Z,1018.47
2017-09-09T10:21:46.723Z,1018.50
2017-09-09T10:22:47.363Z,1018.57
2017-09-09T10:23:47.999Z,1018.57
2017-09-09T10:24:48.834Z,1018.52
2017-09-09T10:25:49.471Z,1018.55
2017-09-09T10:26:50.110Z,1018.47
2017-09-09T10:27:50.747Z,1018.50
2017-09-09T10:28:51.385Z,1018.53
2017-09-09T10:29:52.021Z,1018.57
2017-09-09T10:30:52.657Z,1018.61
2017-09-09T10:31:53.295Z,1018.63
2017-09-09T10:32:53.937Z,1018.53
2017-09-09T10:33:54.725Z,1018.62
2017-09-09T10:34:55.362Z,1018.58
2017-09-09T10:35:56.000Z,1018.55
2017-09-09T10:36:56.638Z,1018.50
2017-09-09T10:37:57.276Z,1018.45
2017-09-09T10:38:57.914Z,1018.52
2017-09-09T10:39:58.551Z,1018.49
2017-09-09T10:40:59.193Z,1018.52
2017-09-09T10:42:00.178Z,1018.53
2017-09-09T10:43:00.815Z,1018.53
2017-09-09T10:44:01.453Z,1018.44
2017-09-09T10:45:02.091Z,1018.56
2017-09-09T10:46:02.731Z,1018.62
2017-09-09T10:47:03.366Z,1018.62
2017-09-09T10:48:04.013Z,1018.53
2017-09-09T10:49:04.643Z,1018.58
2017-09-09T10:50:05.481Z,1018.66
2017-09-09T10:51:06.121Z,1018.64
2017-09-09T10:52:06.758Z,1018.53
2017-09-09T10:53:07.395Z,1018.59
2017-09-09T10:54:08.034Z,1018.53
2017-09-09T10:55:08.673Z,1018.55
2017-09-09T10:56:09.311Z,1018.62
2017-09-09T10:57:09.948Z,1018.62
2017-09-09T10:58:10.824Z,1018.56
2017-09-09T10:59:11.426Z,1018.52
2017-09-09T11:00:12.062Z,1018.55
2017-09-09T11:01:12.705Z,1018.66
2017-09-09T11:02:13.341Z,1018.51
2017-09-09T11:03:13.979Z,1018.58
2017-09-09T11:04:14.617Z,1018.66
2017-09-09T11:05:15.256Z,1018.60
2017-09-09T11:06:15.896Z,1018.63
2017-09-09T11:07:16.733Z,1018.68
2017-09-09T11:08:17.371Z,1018.63
2017-09-09T11:09:18.012Z,1018.61
2017-09-09T11:10:18.649Z,1018.63
2017-09-09T11:11:19.286Z,1018.58
2017-09-09T11:12:19.923Z,1018.57
2017-09-09T11:13:20.562Z,1018.68
2017-09-09T11:14:21.203Z,1018.62
2017-09-09T11:15:22.138Z,1018.63
2017-09-09T11:16:22.775Z,1018.67
2017-09-09T11:17:23.415Z,1018.74
2017-09-09T11:18:24.052Z,1018.68
2017-09-09T11:19:24.690Z,1018.65
2017-09-09T11:20:25.326Z,1018.66
2017-09-09T11:21:25.968Z,1018.50
2017-09-09T11:22:26.604Z,1018.55
2017-09-09T11:23:27.444Z,1018.50
2017-09-09T11:24:28.082Z,1018.50
2017-09-09T11:25:28.718Z,1018.54
2017-09-09T11:26:29.357Z,1018.51
2017-09-09T11:27:29.997Z,1018.45
2017-09-09T11:28:30.632Z,1018.51
2017-09-09T11:29:31.268Z,1018.54
2017-09-09T11:30:31.906Z,1018.53
2017-09-09T11:31:32.846Z,1018.57
2017-09-09T11:32:33.484Z,1018.57
2017-09-09T11:33:34.121Z,1018.56
2017-09-09T11:34:34.759Z,1018.67
2017-09-09T11:35:35.402Z,1018.64
2017-09-09T11:36:36.034Z,1018.55
2017-09-09T11:37:36.671Z,1018.52
2017-09-09T11:38:37.308Z,1018.53
2017-09-09T11:39:38.196Z,1018.45
2017-09-09T11:40:38.833Z,1018.47
2017-09-09T11:41:39.476Z,1018.53
2017-09-09T11:42:40.108Z,1018.43
2017-09-09T11:43:40.749Z,1018.46
2017-09-09T11:44:41.386Z,1018.39
2017-09-09T11:45:42.022Z,1018.41
2017-09-09T11:46:42.659Z,1018.50
2017-09-09T11:47:43.301Z,1018.44
2017-09-09T11:48:44.141Z,1018.56
2017-09-09T11:49:44.781Z,1018.46
2017-09-09T11:50:45.417Z,1018.39
2017-09-09T11:51:46.059Z,1018.49
2017-09-09T11:52:46.699Z,1018.51
2017-09-09T11:53:47.331Z,1018.55
2017-09-09T11:54:47.969Z,1018.44
2017-09-09T11:55:48.610Z,1018.51
2017-09-09T11:56:49.396Z,1018.51
2017-09-09T11:57:50.035Z,1018.58
2017-09-09T11:58:50.672Z,1018.54
2017-09-09T11:59:51.310Z,1018.47
2017-09-09T12:00:51.957Z,1018.51
2017-09-09T12:01:52.637Z,1018.56
2017-09-09T12:02:53.276Z,1018.56
2017-09-09T12:03:53.917Z,1018.42
2017-09-09T12:04:54.803Z,1018.59
2017-09-09T12:05:55.443Z,1018.38
2017-09-09T12:06:56.081Z,1018.54
2017-09-09T12:07:56.719Z,1018.46
2017-09-09T12:08:57.364Z,1018.46
2017-09-09T12:09:57.940Z,1018.56
2017-09-09T12:10:58.581Z,1018.44
2017-09-09T12:11:59.271Z,1018.46
2017-09-09T12:13:00.109Z,1018.40
2017-09-09T12:14:00.750Z,1018.40